Time;durP1;ratioP1;P1;durP2;ratioP2;P2;SDS_P1;SDS_P2;PMS_P1;PMS_P2;Temp;Humidity;BMP_temperature;BMP_pressure;BME280_temperature;BME280_humidity;BME280_pressure;Samples;Min_cycle;Max_cycle;Signal;HPM_P1;HPM_P2
2023/05/24 00:00:59;;;;;;;11.88;7.57;;;;;;;12.56;100.00;97260.41;5056348;28;20024;-80
2023/05/24 00:03:24;;;;;;;13.20;6.78;;;;;;;12.59;100.00;97261.03;5072502;28;20111;-82
2023/05/24 00:05:51;;;;;;;12.90;7.53;;;;;;;12.43;100.00;97264.00;5056125;28;20052;-80
2023/05/24 00:08:16;;;;;;;14.57;7.60;;;;;;;12.38;100.00;97265.31;5056254;28;20028;-80
2023/05/24 00:10:42;;;;;;;11.05;6.88;;;;;;;12.42;100.00;97248.91;5055884;28;20030;-80
2023/05/24 00:13:08;;;;;;;9.45;6.65;;;;;;;12.52;100.00;97248.22;5056117;28;20105;-80
2023/05/24 00:15:33;;;;;;;10.88;7.15;;;;;;;12.47;100.00;97237.81;5072693;28;20044;-80
2023/05/24 00:17:58;;;;;;;15.07;6.57;;;;;;;12.38;100.00;97241.16;5091206;28;20035;-81
2023/05/24 00:20:24;;;;;;;10.98;6.22;;;;;;;12.24;100.00;97238.66;5073140;28;20028;-80
2023/05/24 00:22:50;;;;;;;9.48;6.40;;;;;;;12.12;100.00;97240.41;5073051;28;20024;-81
2023/05/24 00:25:16;;;;;;;14.80;6.65;;;;;;;12.21;100.00;97239.72;5073126;28;20026;-81
2023/05/24 00:27:41;;;;;;;12.65;6.82;;;;;;;12.11;100.00;97225.31;5055898;28;20035;-81
2023/05/24 00:30:07;;;;;;;13.02;6.60;;;;;;;12.12;100.00;97259.16;5072956;28;20036;-81
2023/05/24 00:32:33;;;;;;;12.75;7.35;;;;;;;12.03;100.00;97257.16;5072705;28;20434;-80
2023/05/24 00:34:58;;;;;;;9.95;6.65;;;;;;;12.05;100.00;97265.09;5073056;28;20024;-80
2023/05/24 00:37:25;;;;;;;17.08;6.80;;;;;;;12.07;100.00;97261.34;5073001;28;20020;-80
2023/05/24 00:39:50;;;;;;;11.98;7.28;;;;;;;12.08;100.00;97255.00;5056171;28;20051;-80
2023/05/24 00:42:16;;;;;;;12.85;6.20;;;;;;;11.89;100.00;97251.94;5055936;28;20024;-80
2023/05/24 00:44:42;;;;;;;13.20;7.10;;;;;;;11.78;100.00;97255.38;5073498;28;20023;-80
2023/05/24 00:47:07;;;;;;;15.95;7.32;;;;;;;11.77;100.00;97266.22;5095031;28;20540;-80
2023/05/24 00:49:33;;;;;;;10.07;6.78;;;;;;;11.82;100.00;97264.06;5060142;28;20035;-80
2023/05/24 00:51:59;;;;;;;12.25;6.93;;;;;;;11.71;100.00;97258.63;5076572;28;20059;-80
2023/05/24 00:54:25;;;;;;;10.75;6.57;;;;;;;11.78;100.00;97259.91;5059651;28;20062;-80
2023/05/24 00:56:53;;;;;;;21.58;7.30;;;;;;;11.77;100.00;97260.88;5059707;28;20361;-80
2023/05/24 00:59:18;;;;;;;10.30;5.93;;;;;;;11.67;100.00;97244.53;5076221;28;20475;-80
2023/05/24 01:01:45;;;;;;;13.48;7.13;;;;;;;11.66;100.00;97245.50;5059554;28;20024;-80
2023/05/24 01:04:12;;;;;;;10.85;6.57;;;;;;;11.58;100.00;97244.34;5059463;28;20054;-81
2023/05/24 01:06:46;;;;;;;12.50;7.38;;;;;;;11.59;100.00;97254.09;5076423;28;20024;-80
2023/05/24 01:09:44;;;;;;;12.85;7.03;;;;;;;11.51;100.00;97269.84;5075693;28;20031;-80
2023/05/24 01:12:51;;;;;;;11.65;7.40;;;;;;;11.40;100.00;97255.41;5059391;28;20416;-81
2023/05/24 01:15:30;;;;;;;10.65;7.88;;;;;;;11.45;100.00;97271.13;5045280;28;20051;-80
2023/05/24 01:18:04;;;;;;;13.20;7.30;;;;;;;11.61;100.00;97284.31;5059210;28;20028;-81
2023/05/24 01:20:32;;;;;;;11.25;7.43;;;;;;;11.73;100.00;97284.34;5059582;28;20066;-81
2023/05/24 01:23:19;;;;;;;15.15;7.60;;;;;;;11.80;100.00;97282.06;5059118;28;20118;-81
2023/05/24 01:26:13;;;;;;;15.38;7.80;;;;;;;11.77;100.00;97282.28;5069532;28;20069;-81
2023/05/24 01:28:39;;;;;;;15.63;7.30;;;;;;;11.65;100.00;97283.13;5059010;28;20032;-81
2023/05/24 01:31:05;;;;;;;11.52;7.40;;;;;;;11.68;100.00;97277.56;5058718;28;20044;-81
2023/05/24 01:33:31;;;;;;;11.48;7.32;;;;;;;11.58;100.00;97269.31;5058391;28;20028;-81
2023/05/24 01:35:57;;;;;;;14.38;7.18;;;;;;;11.59;100.00;97278.22;5058785;28;20046;-80
2023/05/24 01:38:22;;;;;;;15.60;7.68;;;;;;;11.52;100.00;97276.91;5058453;28;20543;-80
2023/05/24 01:40:52;;;;;;;12.40;6.95;;;;;;;11.39;100.00;97264.38;5058591;28;20472;-80
2023/05/24 01:43:29;;;;;;;16.35;7.45;;;;;;;11.35;100.00;97280.78;5075290;28;20032;-80
2023/05/24 01:46:21;;;;;;;13.48;7.13;;;;;;;11.42;100.00;97285.59;5075535;28;20028;-80
2023/05/24 01:49:08;;;;;;;11.80;7.00;;;;;;;11.53;100.00;97278.63;5089365;28;20046;-81
2023/05/24 01:51:39;;;;;;;10.50;6.88;;;;;;;11.57;100.00;97274.75;5058384;28;20024;-81
2023/05/24 01:54:05;;;;;;;16.63;7.60;;;;;;;11.64;100.00;97268.00;5075289;28;20054;-81
2023/05/24 01:56:31;;;;;;;13.52;7.47;;;;;;;11.71;100.00;97262.16;5074609;28;20020;-81
2023/05/24 01:58:58;;;;;;;11.27;7.10;;;;;;;11.66;100.00;97247.34;5058634;28;20050;-80
2023/05/24 02:01:24;;;;;;;14.77;7.80;;;;;;;11.64;100.00;97258.16;5075491;28;20070;-81
2023/05/24 02:03:50;;;;;;;15.90;7.40;;;;;;;11.61;100.00;97257.50;5058386;28;20028;-81
2023/05/24 02:06:15;;;;;;;13.88;7.90;;;;;;;11.47;100.00;97260.31;5075179;28;20030;-81
2023/05/24 02:08:41;;;;;;;19.60;8.10;;;;;;;11.47;100.00;97271.03;5058248;28;20412;-79
2023/05/24 02:11:06;;;;;;;18.13;7.38;;;;;;;11.43;100.00;97278.41;5075151;28;20043;-80
2023/05/24 02:13:31;;;;;;;16.25;7.60;;;;;;;11.33;100.00;97272.84;5074817;28;20050;-81
2023/05/24 02:15:57;;;;;;;11.52;7.85;;;;;;;11.25;100.00;97269.00;5074822;28;20047;-82
2023/05/24 02:18:22;;;;;;;13.20;7.80;;;;;;;11.28;100.00;97291.06;5075027;28;20067;-82
2023/05/24 02:20:48;;;;;;;11.93;7.75;;;;;;;11.18;100.00;97268.56;5058591;28;20106;-82
2023/05/24 02:23:13;;;;;;;12.75;7.63;;;;;;;11.23;100.00;97284.28;5058774;28;20472;-82
2023/05/24 02:25:39;;;;;;;10.48;7.32;;;;;;;11.22;100.00;97295.97;5074627;28;20023;-82
2023/05/24 02:28:05;;;;;;;10.80;7.53;;;;;;;11.25;100.00;97295.75;5074787;28;20024;-81
2023/05/24 02:30:30;;;;;;;14.98;7.82;;;;;;;11.19;100.00;97280.13;5074738;28;20024;-81
2023/05/24 02:32:57;;;;;;;11.23;7.20;;;;;;;11.20;100.00;97287.16;5074763;28;20031;-81
2023/05/24 02:35:23;;;;;;;16.48;7.53;;;;;;;11.12;100.00;97285.03;5074845;28;20020;-82
2023/05/24 02:37:48;;;;;;;21.80;8.43;;;;;;;11.10;100.00;97291.47;5057809;28;20411;-80
2023/05/24 02:40:14;;;;;;;15.20;7.90;;;;;;;11.12;100.00;97303.78;5075614;28;20503;-81
2023/05/24 02:42:39;;;;;;;17.38;7.22;;;;;;;11.07;100.00;97297.88;5058044;28;20119;-80
2023/05/24 02:45:06;;;;;;;14.43;7.15;;;;;;;10.97;100.00;97296.78;5074570;28;20020;-80
2023/05/24 02:47:31;;;;;;;11.85;7.50;;;;;;;10.90;100.00;97298.16;5074642;28;20055;-81
2023/05/24 02:49:57;;;;;;;14.55;8.18;;;;;;;10.88;100.00;97298.25;5057736;28;20133;-80
2023/05/24 02:52:22;;;;;;;17.38;7.50;;;;;;;10.93;100.00;97314.00;5074349;28;20028;-82
2023/05/24 02:54:48;;;;;;;17.02;7.90;;;;;;;11.01;100.00;97314.34;5074081;28;20036;-81
2023/05/24 02:57:15;;;;;;;13.95;7.80;;;;;;;10.88;100.00;97316.13;5074307;28;20031;-81
2023/05/24 02:59:40;;;;;;;13.50;7.47;;;;;;;10.86;100.00;97299.31;5074255;28;20407;-81
2023/05/24 03:02:06;;;;;;;11.80;7.25;;;;;;;10.91;100.00;97312.38;5057395;28;20036;-82
2023/05/24 03:04:31;;;;;;;14.68;7.45;;;;;;;10.81;100.00;97306.78;5074052;28;20020;-81
2023/05/24 03:06:57;;;;;;;18.27;7.35;;;;;;;10.81;100.00;97301.44;5056960;28;20035;-81
2023/05/24 03:09:23;;;;;;;10.05;6.70;;;;;;;10.74;100.00;97295.63;5057134;28;20438;-81
2023/05/24 03:11:48;;;;;;;14.27;6.80;;;;;;;10.77;100.00;97305.28;5057122;28;20024;-81
2023/05/24 03:14:16;;;;;;;12.23;7.35;;;;;;;10.80;100.00;97308.59;5057529;28;20039;-82
2023/05/24 03:16:41;;;;;;;11.65;7.13;;;;;;;10.96;100.00;97313.78;5057161;28;20085;-75
2023/05/24 03:19:07;;;;;;;14.88;9.27;;;;;;;10.95;100.00;97316.59;5056396;28;20512;-74
2023/05/24 03:21:32;;;;;;;20.15;10.27;;;;;;;10.94;100.00;97318.41;5056670;28;20536;-75
2023/05/24 03:23:58;;;;;;;14.45;7.53;;;;;;;11.10;100.00;97315.56;5073031;28;20024;-76
2023/05/24 03:26:24;;;;;;;23.73;8.77;;;;;;;11.05;100.00;97310.50;5056482;28;20032;-75
2023/05/24 03:28:50;;;;;;;25.33;10.70;;;;;;;11.09;100.00;97316.50;5073242;28;20096;-75
2023/05/24 03:31:16;;;;;;;26.42;10.95;;;;;;;11.18;100.00;97318.56;5073094;28;20032;-74
2023/05/24 03:33:42;;;;;;;17.95;8.73;;;;;;;11.24;100.00;97313.63;5072822;28;20035;-74
2023/05/24 03:36:07;;;;;;;23.95;8.45;;;;;;;11.25;100.00;97310.00;5072798;28;20036;-74
2023/05/24 03:38:33;;;;;;;16.65;7.53;;;;;;;11.18;100.00;97302.50;5056252;28;20394;-75
2023/05/24 03:40:59;;;;;;;19.95;8.00;;;;;;;11.14;100.00;97320.56;5090689;28;20039;-75
2023/05/24 03:43:24;;;;;;;15.13;7.95;;;;;;;11.19;100.00;97322.97;5072731;28;20069;-74
2023/05/24 03:45:50;;;;;;;18.98;7.20;;;;;;;11.28;100.00;97325.88;5072778;28;20043;-74
2023/05/24 03:48:16;;;;;;;20.88;7.72;;;;;;;11.39;100.00;97327.78;5072725;28;20487;-73
2023/05/24 03:50:41;;;;;;;18.25;8.77;;;;;;;11.49;100.00;97319.97;5072911;28;20043;-74
2023/05/24 03:53:07;;;;;;;20.55;8.63;;;;;;;11.53;100.00;97305.44;5072795;28;20035;-75
2023/05/24 03:55:32;;;;;;;18.70;8.50;;;;;;;11.53;100.00;97300.06;5056112;28;20028;-75
2023/05/24 03:57:58;;;;;;;18.00;7.43;;;;;;;11.58;100.00;97297.91;5072774;28;20093;-76
2023/05/24 04:00:23;;;;;;;20.92;11.60;;;;;;;11.50;100.00;97290.44;5072860;28;20016;-76
2023/05/24 04:02:49;;;;;;;17.65;8.32;;;;;;;11.47;100.00;97303.16;5056223;28;20020;-76
2023/05/24 04:05:15;;;;;;;13.82;7.78;;;;;;;11.60;100.00;97312.03;5072762;28;20043;-75
2023/05/24 04:07:41;;;;;;;10.70;7.03;;;;;;;11.64;100.00;97313.56;5055509;28;20475;-75
2023/05/24 04:10:07;;;;;;;11.30;7.22;;;;;;;11.70;100.00;97303.31;5090565;28;20477;-80
2023/05/24 04:12:33;;;;;;;21.67;8.88;;;;;;;11.92;100.00;97314.22;5072683;28;20024;-76
2023/05/24 04:14:59;;;;;;;16.98;9.43;;;;;;;12.00;100.00;97312.84;5055556;28;20642;-76
2023/05/24 04:17:31;;;;;;;17.45;8.13;;;;;;;12.05;100.00;97306.16;5072490;28;20020;-76
2023/05/24 04:19:57;;;;;;;25.00;9.13;;;;;;;12.14;100.00;97304.66;5056994;28;20055;-76
2023/05/24 04:22:22;;;;;;;21.05;8.88;;;;;;;12.16;100.00;97300.88;5059930;28;20028;-75
2023/05/24 04:24:48;;;;;;;19.02;9.43;;;;;;;12.25;100.00;97300.22;5076561;28;20035;-75
2023/05/24 04:27:13;;;;;;;24.38;9.25;;;;;;;12.26;100.00;97285.84;5076369;28;20036;-76
2023/05/24 04:29:40;;;;;;;20.55;7.45;;;;;;;12.44;100.00;97295.22;5059783;28;20051;-76
2023/05/24 04:32:06;;;;;;;14.88;7.72;;;;;;;12.55;100.00;97280.19;5076423;28;20035;-77
2023/05/24 04:34:34;;;;;;;23.35;7.85;;;;;;;12.83;100.00;97291.41;5076382;28;20032;-75
2023/05/24 04:37:00;;;;;;;15.73;7.85;;;;;;;12.97;100.00;97263.53;5076648;28;20411;-75
2023/05/24 04:39:27;;;;;;;16.42;8.35;;;;;;;12.95;100.00;97255.56;5059457;28;20057;-75
2023/05/24 04:41:54;;;;;;;17.77;8.10;;;;;;;13.14;100.00;97257.75;5059700;28;20032;-76
2023/05/24 04:44:19;;;;;;;23.13;8.50;;;;;;;13.27;100.00;97269.25;5059411;28;20020;-75
2023/05/24 04:46:45;;;;;;;34.85;9.25;;;;;;;13.30;100.00;97274.41;5094480;28;20039;-76
2023/05/24 04:49:10;;;;;;;23.27;10.32;;;;;;;13.38;100.00;97268.44;5058944;28;20116;-76
2023/05/24 04:51:37;;;;;;;37.50;10.25;;;;;;;13.50;100.00;97284.44;5059135;28;20031;-76
2023/05/24 04:54:07;;;;;;;51.70;10.98;;;;;;;13.77;100.00;97273.38;5074255;28;20407;-77
2023/05/24 04:56:37;;;;;;;54.03;10.38;;;;;;;15.34;100.00;97275.59;5057170;28;20407;-86
2023/05/24 04:59:09;;;;;;;29.85;9.27;;;;;;;16.70;100.00;97236.44;5056933;28;20032;-79
2023/05/24 05:01:35;;;;;;;87.40;36.13;;;;;;;16.86;100.00;97226.97;5072488;28;20043;-79
2023/05/24 05:04:03;;;;;;;49.83;15.48;;;;;;;16.31;100.00;97231.94;5073697;28;20274;-81
2023/05/24 05:06:28;;;;;;;39.15;11.38;;;;;;;16.31;100.00;97218.44;5056344;28;20024;-74
2023/05/24 05:08:54;;;;;;;21.63;10.52;;;;;;;16.20;100.00;97235.63;5072627;28;20139;-74
2023/05/24 05:11:20;;;;;;;24.30;9.85;;;;;;;16.38;100.00;97222.31;5072601;28;20028;-74
2023/05/24 05:13:45;;;;;;;20.50;10.18;;;;;;;16.48;100.00;97222.34;5056061;28;20027;-74
2023/05/24 05:16:11;;;;;;;17.75;9.00;;;;;;;17.08;100.00;97221.25;5072583;28;20081;-74
2023/05/24 05:18:37;;;;;;;19.83;10.00;;;;;;;18.59;100.00;97216.50;5072660;28;20114;-75
2023/05/24 05:21:02;;;;;;;13.65;7.88;;;;;;;20.11;100.00;97194.38;5053028;28;20150;-75
2023/05/24 05:23:29;;;;;;;17.65;8.80;;;;;;;21.38;100.00;97182.28;5072415;28;20040;-75
2023/05/24 05:25:54;;;;;;;22.38;9.52;;;;;;;22.29;95.53;97182.78;5072487;28;20035;-75
2023/05/24 05:28:20;;;;;;;19.80;8.60;;;;;;;23.35;86.51;97162.84;5055620;28;20040;-74
2023/05/24 05:30:45;;;;;;;13.43;7.82;;;;;;;24.00;79.54;97157.63;5089853;28;20086;-74
2023/05/24 05:33:11;;;;;;;12.60;6.93;;;;;;;24.23;76.51;97150.22;5072433;28;20056;-74
2023/05/24 05:35:36;;;;;;;9.98;6.25;;;;;;;24.39;71.51;97137.38;5051663;28;20028;-74
2023/05/24 05:38:02;;;;;;;19.17;6.95;;;;;;;24.91;70.00;97140.75;5072275;28;20681;-74
2023/05/24 05:40:27;;;;;;;9.23;6.68;;;;;;;24.71;67.26;97140.50;5072013;28;20032;-74
2023/05/24 05:42:53;;;;;;;10.13;7.45;;;;;;;24.56;69.64;97155.25;5072067;28;20049;-73
2023/05/24 05:45:19;;;;;;;11.60;7.13;;;;;;;24.31;71.95;97154.72;5072149;28;20017;-75
2023/05/24 05:47:44;;;;;;;12.80;7.53;;;;;;;24.47;70.55;97150.91;5072351;28;20032;-75
2023/05/24 05:50:10;;;;;;;14.00;10.00;;;;;;;24.64;70.18;97155.16;5055323;28;20027;-75
2023/05/24 05:52:35;;;;;;;10.55;7.53;;;;;;;24.92;68.10;97150.63;5072278;28;20028;-75
2023/05/24 05:55:01;;;;;;;16.83;7.72;;;;;;;25.05;67.80;97152.66;5055099;28;20554;-75
2023/05/24 05:57:26;;;;;;;16.38;8.38;;;;;;;25.05;66.71;97145.31;5055446;28;20112;-74
2023/05/24 05:59:52;;;;;;;17.20;8.30;;;;;;;25.70;65.90;97155.19;5072566;28;20428;-74
2023/05/24 06:02:18;;;;;;;15.43;8.20;;;;;;;26.04;62.43;97146.16;5072005;28;20031;-74
2023/05/24 06:04:44;;;;;;;17.00;9.32;;;;;;;26.19;62.58;97146.91;5071829;28;20416;-74
2023/05/24 06:07:10;;;;;;;12.75;7.53;;;;;;;26.59;58.35;97151.53;5071967;28;20406;-73
2023/05/24 06:09:35;;;;;;;34.20;20.15;;;;;;;26.89;57.57;97152.09;5071731;28;20028;-74
2023/05/24 06:12:01;;;;;;;19.13;7.78;;;;;;;27.19;56.74;97153.44;5055258;28;20028;-74
2023/05/24 06:14:27;;;;;;;19.20;8.98;;;;;;;27.24;54.92;97148.16;5071566;28;20032;-74
2023/05/24 06:16:53;;;;;;;14.07;9.32;;;;;;;27.07;55.18;97146.03;5071945;28;20105;-74
2023/05/24 06:19:19;;;;;;;15.32;8.00;;;;;;;27.29;53.36;97144.78;5053665;28;20479;-74
2023/05/24 06:21:47;;;;;;;19.20;10.10;;;;;;;26.00;56.94;97133.88;5055054;28;20036;-74
2023/05/24 06:24:20;;;;;;;31.92;18.40;;;;;;;25.63;60.90;97143.31;5071586;28;20060;-74
2023/05/24 06:26:46;;;;;;;15.93;7.65;;;;;;;26.20;58.85;97160.44;5054925;28;20115;-74
2023/05/24 06:29:15;;;;;;;11.88;6.85;;;;;;;25.70;60.08;97142.34;5054616;28;20028;-75
2023/05/24 06:31:42;;;;;;;9.85;6.18;;;;;;;26.44;55.61;97145.34;5071466;28;20044;-75
2023/05/24 06:34:07;;;;;;;8.98;6.10;;;;;;;27.21;54.28;97145.84;5071340;28;20044;-75
2023/05/24 06:36:34;;;;;;;9.93;6.32;;;;;;;27.66;52.90;97148.84;5070896;28;20028;-75
2023/05/24 06:39:00;;;;;;;16.08;6.45;;;;;;;28.10;50.71;97140.78;5071286;28;20070;-74
2023/05/24 06:41:25;;;;;;;7.35;5.53;;;;;;;28.50;48.55;97128.59;5089240;28;20052;-73
2023/05/24 06:43:51;;;;;;;8.70;5.43;;;;;;;29.53;46.41;97140.38;5070317;28;20846;-74
2023/05/24 06:46:17;;;;;;;13.73;5.28;;;;;;;30.03;43.81;97128.25;5071505;28;20031;-73
2023/05/24 06:48:42;;;;;;;11.27;8.43;;;;;;;30.30;43.39;97125.22;5070950;28;20456;-75
2023/05/24 06:51:08;;;;;;;8.13;5.35;;;;;;;29.63;44.19;97107.59;5088937;28;20031;-73
2023/05/24 06:53:33;;;;;;;12.15;5.13;;;;;;;29.66;44.29;97109.06;5054106;28;20118;-74
2023/05/24 06:55:59;;;;;;;19.15;5.53;;;;;;;29.35;44.12;97096.16;5070703;28;20504;-74
2023/05/24 06:58:24;;;;;;;13.02;5.60;;;;;;;29.16;44.93;97105.41;5070623;28;20070;-73
2023/05/24 07:00:50;;;;;;;12.65;5.80;;;;;;;28.87;44.50;97091.19;5088964;28;20101;-74
2023/05/24 07:03:16;;;;;;;10.23;5.32;;;;;;;29.32;44.07;97093.84;5088780;28;20038;-74
2023/05/24 07:05:41;;;;;;;7.72;5.03;;;;;;;29.89;43.70;97095.53;5070495;28;20032;-74
2023/05/24 07:08:08;;;;;;;9.65;5.90;;;;;;;29.99;42.69;97085.63;5088968;28;20085;-74
2023/05/24 07:10:33;;;;;;;46.20;29.23;;;;;;;30.51;42.86;97106.31;5070672;28;20019;-74
2023/05/24 07:13:00;;;;;;;15.65;5.95;;;;;;;30.94;41.95;97100.69;5070432;28;20468;-74
2023/05/24 07:15:25;;;;;;;13.25;9.82;;;;;;;31.01;41.11;97093.13;5053699;28;20652;-74
2023/05/24 07:17:51;;;;;;;14.07;6.68;;;;;;;31.23;40.43;97087.91;5053460;28;20073;-74
2023/05/24 07:20:17;;;;;;;10.63;5.75;;;;;;;31.22;40.51;97096.44;5069786;28;20035;-74
2023/05/24 07:22:43;;;;;;;7.35;4.53;;;;;;;31.71;39.94;97095.25;5088231;28;20034;-74
2023/05/24 07:25:09;;;;;;;92.05;56.88;;;;;;;32.34;38.73;97101.75;5070220;28;20046;-75
2023/05/24 07:27:34;;;;;;;8.98;5.05;;;;;;;32.85;37.08;97078.75;5088670;28;20425;-74
2023/05/24 07:30:00;;;;;;;17.05;5.05;;;;;;;32.83;37.23;97082.84;5053552;28;20044;-75
2023/05/24 07:32:26;;;;;;;7.47;4.88;;;;;;;33.30;36.92;97094.59;5088178;28;20042;-75
2023/05/24 07:34:52;;;;;;;11.95;5.00;;;;;;;33.91;35.61;97093.72;5053081;28;20039;-74
2023/05/24 07:37:17;;;;;;;9.30;4.45;;;;;;;33.02;36.84;97070.47;5070005;28;20035;-75
2023/05/24 07:39:43;;;;;;;5.57;4.38;;;;;;;32.65;36.55;97062.56;5070152;28;20020;-74
2023/05/24 07:42:09;;;;;;;7.32;4.18;;;;;;;33.30;35.51;97067.72;5053080;28;20384;-75
2023/05/24 07:44:34;;;;;;;7.20;4.28;;;;;;;33.99;34.88;97079.44;5069915;28;20019;-74
2023/05/24 07:47:01;;;;;;;13.52;4.45;;;;;;;32.39;35.66;97021.56;5087936;28;20028;-75
2023/05/24 07:49:27;;;;;;;9.00;4.32;;;;;;;32.41;35.98;97040.69;5069550;28;20034;-75
2023/05/24 07:51:55;;;;;;;5.88;4.03;;;;;;;33.33;34.56;97058.88;5070289;28;20031;-74
2023/05/24 07:54:21;;;;;;;6.47;4.15;;;;;;;33.55;35.18;97068.16;5069953;28;20050;-75
2023/05/24 07:56:47;;;;;;;8.02;4.25;;;;;;;33.36;36.29;97061.16;5087699;28;20032;-75
2023/05/24 07:59:13;;;;;;;8.30;5.75;;;;;;;34.00;35.17;97076.38;5069776;28;20423;-75
2023/05/24 08:01:39;;;;;;;12.13;4.78;;;;;;;34.22;34.70;97071.75;5087738;28;20023;-74
2023/05/24 08:04:04;;;;;;;4.72;3.55;;;;;;;34.29;32.91;97052.97;5053050;28;20039;-75
2023/05/24 08:06:31;;;;;;;11.10;4.07;;;;;;;33.72;33.48;97019.06;5069489;28;20023;-74
2023/05/24 08:08:57;;;;;;;8.80;4.30;;;;;;;33.66;34.60;97058.06;5069837;28;20400;-74
2023/05/24 08:11:23;;;;;;;12.27;5.40;;;;;;;34.50;34.93;97073.53;5069831;28;20042;-75
2023/05/24 08:13:48;;;;;;;14.70;5.28;;;;;;;34.34;35.26;97063.28;5069443;28;20020;-75
2023/05/24 08:16:14;;;;;;;7.53;3.90;;;;;;;34.31;34.76;97061.03;5069971;28;20112;-75
2023/05/24 08:18:39;;;;;;;9.38;3.90;;;;;;;33.13;35.27;97033.59;5069017;28;20514;-75
2023/05/24 08:21:05;;;;;;;8.68;4.13;;;;;;;34.00;34.96;97053.31;5069426;28;20082;-74
2023/05/24 08:23:30;;;;;;;7.22;3.78;;;;;;;34.27;35.05;97062.66;5069315;28;20059;-74
2023/05/24 08:25:57;;;;;;;5.03;3.78;;;;;;;33.13;36.38;97033.59;5069486;28;20031;-75
2023/05/24 08:28:22;;;;;;;9.48;4.43;;;;;;;33.48;36.06;97053.59;5069265;28;20028;-76
2023/05/24 08:30:48;;;;;;;8.38;7.00;;;;;;;33.61;33.88;97036.66;5087220;28;20031;-74
2023/05/24 08:33:13;;;;;;;6.97;4.43;;;;;;;33.52;35.12;97054.78;5052482;28;20480;-75
2023/05/24 08:35:39;;;;;;;12.07;3.85;;;;;;;33.51;33.15;97024.50;5069311;28;20494;-74
2023/05/24 08:38:05;;;;;;;7.03;3.67;;;;;;;33.66;33.70;97053.38;5052693;28;20042;-75
2023/05/24 08:40:31;;;;;;;7.03;3.53;;;;;;;33.93;33.46;97052.69;5069525;28;20024;-75
2023/05/24 08:42:59;;;;;;;7.07;4.40;;;;;;;34.74;31.94;97051.88;5052478;28;20143;-74
2023/05/24 08:45:25;;;;;;;5.95;3.90;;;;;;;34.20;31.71;97026.75;5069337;28;20024;-73
2023/05/24 08:47:50;;;;;;;13.50;9.02;;;;;;;34.11;32.87;97028.28;5068952;28;20030;-74
2023/05/24 08:50:17;;;;;;;8.25;4.38;;;;;;;34.17;32.64;97026.41;5052833;28;20032;-78
2023/05/24 08:52:42;;;;;;;10.60;4.72;;;;;;;34.95;32.69;97052.97;5052511;28;20035;-79
2023/05/24 08:55:08;;;;;;;12.65;4.82;;;;;;;35.22;32.08;97048.28;5067073;28;20039;-79
2023/05/24 08:57:38;;;;;;;5.85;4.20;;;;;;;35.35;32.31;97053.38;5049769;28;20040;-76
2023/05/24 09:00:05;;;;;;;10.45;3.50;;;;;;;34.93;31.78;97019.00;5052574;28;20055;-74
2023/05/24 09:02:32;;;;;;;5.25;3.55;;;;;;;35.61;31.36;97063.69;5069280;28;20024;-76
2023/05/24 09:04:58;;;;;;;7.95;3.95;;;;;;;36.00;30.97;97046.69;5052343;28;20058;-74
2023/05/24 09:07:24;;;;;;;13.02;4.75;;;;;;;36.18;31.54;97051.88;5055324;28;20031;-75
2023/05/24 09:10:00;;;;;;;3.80;3.40;;;;;;;35.72;31.97;97045.94;5056168;28;20111;-74
2023/05/24 09:12:31;;;;;;;6.38;3.85;;;;;;;36.34;31.32;97056.41;5056124;28;20375;-80
2023/05/24 09:14:57;;;;;;;7.47;3.97;;;;;;;36.48;31.40;97062.34;5056190;28;20044;-76
2023/05/24 09:17:23;;;;;;;7.15;4.55;;;;;;;35.20;31.57;96995.66;5072962;28;20028;-74
2023/05/24 09:19:50;;;;;;;4.03;3.63;;;;;;;34.33;32.23;97001.31;5072403;28;20507;-75
2023/05/24 09:22:22;;;;;;;7.03;3.95;;;;;;;35.58;31.68;97039.16;5073173;28;20035;-77
2023/05/24 09:24:48;;;;;;;5.80;3.70;;;;;;;34.72;32.06;96999.34;5057282;28;20036;-77
2023/05/24 09:27:21;;;;;;;6.93;4.18;;;;;;;33.93;33.67;97011.03;5072699;28;20020;-76
2023/05/24 09:29:53;;;;;;;12.30;5.80;;;;;;;35.03;33.25;97053.34;5073171;28;20050;-77
2023/05/24 09:32:22;;;;;;;6.10;4.65;;;;;;;35.56;31.44;97026.59;5073422;28;20137;-77
2023/05/24 09:34:50;;;;;;;7.90;4.13;;;;;;;35.33;31.66;97017.50;5056160;28;20066;-77
2023/05/24 09:37:17;;;;;;;6.13;3.78;;;;;;;35.74;30.36;97029.00;5055811;28;20523;-77
2023/05/24 09:39:44;;;;;;;4.68;3.60;;;;;;;36.04;30.43;97034.75;5072704;28;20028;-77
2023/05/24 09:42:23;;;;;;;4.65;3.67;;;;;;;36.81;29.66;97034.06;5055429;28;20127;-75
2023/05/24 09:45:08;;;;;;;4.75;3.28;;;;;;;37.34;28.73;97056.00;5072768;28;20024;-77
2023/05/24 09:47:44;;;;;;;4.85;3.55;;;;;;;37.67;28.01;97031.47;5055888;28;20115;-77
2023/05/24 09:50:14;;;;;;;3.58;3.20;;;;;;;37.33;27.45;97003.22;5055633;28;20039;-76
2023/05/24 09:52:40;;;;;;;9.02;3.13;;;;;;;38.66;26.74;97051.16;5055577;28;20616;-77
2023/05/24 09:55:14;;;;;;;6.10;3.78;;;;;;;39.26;26.65;97046.38;5055227;28;20111;-76
2023/05/24 09:57:40;;;;;;;6.35;3.25;;;;;;;39.66;26.30;97034.91;5055607;28;20118;-79
2023/05/24 10:00:16;;;;;;;5.88;3.30;;;;;;;39.80;26.09;97018.28;5055603;28;20122;-77
2023/05/24 10:02:43;;;;;;;6.15;3.70;;;;;;;38.97;27.04;97002.34;5073591;28;20098;-77
2023/05/24 10:05:12;;;;;;;8.93;3.63;;;;;;;38.28;27.61;96976.31;5055442;28;20403;-77
2023/05/24 10:07:40;;;;;;;9.30;3.92;;;;;;;39.22;27.10;97008.91;5071838;28;20032;-76
2023/05/24 10:10:06;;;;;;;7.43;5.07;;;;;;;39.15;27.62;96998.00;5071866;28;20419;-75
2023/05/24 10:12:34;;;;;;;11.15;6.35;;;;;;;40.22;26.50;97031.59;5055205;28;20444;-77
2023/05/24 10:15:00;;;;;;;8.35;4.07;;;;;;;38.79;27.31;96966.63;5072093;28;20420;-77
2023/05/24 10:17:28;;;;;;;6.47;3.53;;;;;;;39.08;26.63;97000.28;5071520;28;20034;-77
2023/05/24 10:19:54;;;;;;;5.68;3.85;;;;;;;39.53;27.19;97004.75;5055561;28;20039;-77
2023/05/24 10:22:23;;;;;;;8.02;4.32;;;;;;;38.92;26.69;96968.78;5071936;28;20561;-76
2023/05/24 10:24:52;;;;;;;7.40;4.20;;;;;;;39.28;26.87;96976.97;5055423;28;20024;-75
2023/05/24 10:27:22;;;;;;;6.47;3.35;;;;;;;38.12;27.04;96949.56;5055003;28;20024;-76
2023/05/24 10:29:58;;;;;;;9.35;4.50;;;;;;;37.70;27.63;96961.06;5054304;28;20028;-74
2023/05/24 10:32:25;;;;;;;4.35;3.30;;;;;;;35.72;28.56;96920.66;5054812;28;20092;-76
2023/05/24 10:34:52;;;;;;;5.43;3.50;;;;;;;34.51;30.46;96933.50;5071453;28;20447;-76
2023/05/24 10:37:18;;;;;;;7.38;4.20;;;;;;;35.19;30.32;96963.38;5054940;28;20543;-76
2023/05/24 10:39:44;;;;;;;10.73;3.75;;;;;;;37.19;27.88;96989.00;5071440;28;20120;-76
2023/05/24 10:42:09;;;;;;;7.57;4.47;;;;;;;36.07;28.29;96927.56;5071295;28;20063;-75
2023/05/24 10:44:36;;;;;;;6.57;3.70;;;;;;;35.75;28.86;96938.78;5054035;28;20035;-76
2023/05/24 10:47:05;;;;;;;8.02;3.92;;;;;;;36.51;28.37;96964.25;5054979;28;20093;-75
2023/05/24 10:49:31;;;;;;;5.13;3.80;;;;;;;38.19;27.47;96986.41;5071047;28;20028;-75
2023/05/24 10:52:04;;;;;;;7.78;3.30;;;;;;;36.78;27.76;96946.22;5054324;28;20039;-75
2023/05/24 10:54:29;;;;;;;9.82;4.85;;;;;;;37.45;27.60;96950.78;5054536;28;20519;-75
2023/05/24 10:57:03;;;;;;;8.68;3.72;;;;;;;36.06;28.12;96921.16;5070967;28;20115;-76
2023/05/24 10:59:36;;;;;;;7.18;3.60;;;;;;;37.32;28.03;96962.47;5071605;28;20101;-76
2023/05/24 11:02:03;;;;;;;6.55;3.28;;;;;;;38.36;27.10;96998.94;5071428;28;20032;-76
2023/05/24 11:04:33;;;;;;;5.03;3.28;;;;;;;39.41;24.90;96979.09;5071047;28;20047;-76
2023/05/24 11:07:02;;;;;;;9.25;3.05;;;;;;;39.43;25.75;96971.22;5070926;28;20101;-76
2023/05/24 11:09:28;;;;;;;9.55;3.83;;;;;;;39.79;25.38;96969.81;5071004;28;20024;-76
2023/05/24 11:11:57;;;;;;;7.72;3.70;;;;;;;39.57;24.73;96941.41;5071058;28;20050;-81
2023/05/24 11:14:26;;;;;;;5.65;2.72;;;;;;;38.24;25.12;96892.19;5054238;28;20047;-82
2023/05/24 11:16:51;;;;;;;6.55;2.90;;;;;;;37.43;26.25;96902.75;5071328;28;20032;-82
2023/05/24 11:19:22;;;;;;;5.10;2.97;;;;;;;38.18;25.24;96931.66;5071412;28;20389;-82
2023/05/24 11:21:50;;;;;;;7.82;4.63;;;;;;;37.76;25.39;96904.94;5054171;28;20054;-82
2023/05/24 11:24:18;;;;;;;4.95;3.17;;;;;;;38.56;25.34;96928.13;5089453;28;20047;-83